createdAt,value
2022-09-13T00:02:23.427Z,10.13
2022-09-13T00:04:50.961Z,10.05
2022-09-13T00:07:18.564Z,6.10
2022-09-13T00:09:46.042Z,5.22
2022-09-13T00:12:13.473Z,4.25
2022-09-13T00:14:40.884Z,4.57
2022-09-13T00:17:08.648Z,5.18
2022-09-13T00:19:36.072Z,3.70
2022-09-13T00:22:03.574Z,4.60
2022-09-13T00:24:30.938Z,6.70
2022-09-13T00:26:58.435Z,3.58
2022-09-13T00:29:26.000Z,5.30
2022-09-13T00:31:53.676Z,4.07
2022-09-13T00:34:21.094Z,7.18
2022-09-13T00:36:48.566Z,6.43
2022-09-13T00:39:15.927Z,3.70
2022-09-13T00:41:43.356Z,3.55
2022-09-13T00:44:29.551Z,4.10
2022-09-13T00:46:57.199Z,5.03
2022-09-13T00:49:24.624Z,4.32
2022-09-13T00:51:55.524Z,4.20
2022-09-13T00:54:24.894Z,3.95
2022-09-13T00:56:55.114Z,3.70
2022-09-13T00:59:55.082Z,3.33
2022-09-13T01:02:22.711Z,3.17
2022-09-13T01:04:50.259Z,3.67
2022-09-13T01:07:18.605Z,4.93
2022-09-13T01:09:46.774Z,3.40
2022-09-13T01:12:18.826Z,8.82
2022-09-13T01:14:47.147Z,3.85
2022-09-13T01:17:14.617Z,5.72
2022-09-13T01:19:42.168Z,8.27
2022-09-13T01:22:29.427Z,16.73
2022-09-13T01:25:05.742Z,6.25
2022-09-13T01:27:51.949Z,8.13
2022-09-13T01:30:20.831Z,9.35
2022-09-13T01:32:48.161Z,3.97
2022-09-13T01:35:17.097Z,2.90
2022-09-13T01:37:53.316Z,4.45
2022-09-13T01:40:44.056Z,6.82
2022-09-13T01:43:18.000Z,3.85
2022-09-13T01:46:04.084Z,3.28
2022-09-13T01:48:50.020Z,3.63
2022-09-13T01:51:20.256Z,3.47
2022-09-13T01:54:23.308Z,3.90
2022-09-13T01:56:50.820Z,3.63
2022-09-13T01:59:22.517Z,3.35
2022-09-13T02:01:58.564Z,4.05
2022-09-13T02:04:31.474Z,3.47
2022-09-13T02:07:04.852Z,3.78
2022-09-13T02:09:35.224Z,3.72
2022-09-13T02:12:06.476Z,3.55
2022-09-13T02:14:38.725Z,3.78
2022-09-13T02:17:15.335Z,4.07
2022-09-13T02:19:46.107Z,3.70
2022-09-13T02:22:16.131Z,3.80
2022-09-13T02:24:45.867Z,4.18
2022-09-13T02:27:15.270Z,3.97
2022-09-13T02:29:45.386Z,4.18
2022-09-13T02:32:19.193Z,3.55
2022-09-13T02:34:49.310Z,4.10
2022-09-13T02:37:16.852Z,4.63
2022-09-13T02:39:51.216Z,3.90
2022-09-13T02:42:20.751Z,4.25
2022-09-13T02:44:53.296Z,4.40
2022-09-13T02:47:35.308Z,3.90
2022-09-13T02:50:20.286Z,3.55
2022-09-13T02:52:47.714Z,3.05
2022-09-13T02:55:24.716Z,3.70
2022-09-13T02:58:11.940Z,3.42
2022-09-13T03:00:39.533Z,3.88
2022-09-13T03:03:10.598Z,3.25
2022-09-13T03:05:38.117Z,3.30
2022-09-13T03:08:06.860Z,3.67
2022-09-13T03:10:46.473Z,3.42
2022-09-13T03:13:31.355Z,3.63
2022-09-13T03:15:59.668Z,3.70
2022-09-13T03:18:33.971Z,3.65
2022-09-13T03:21:01.319Z,4.53
2022-09-13T03:23:44.184Z,3.80
2022-09-13T03:26:26.981Z,3.67
2022-09-13T03:28:56.767Z,3.78
2022-09-13T03:31:34.094Z,3.65
2022-09-13T03:34:13.884Z,4.03
2022-09-13T03:36:45.289Z,3.90
2022-09-13T03:39:31.294Z,4.03
2022-09-13T03:42:00.655Z,4.22
2022-09-13T03:44:29.905Z,4.07
2022-09-13T03:46:59.846Z,3.90
2022-09-13T03:49:28.017Z,4.47
2022-09-13T03:51:55.482Z,4.15
2022-09-13T03:54:32.889Z,5.22
2022-09-13T03:57:29.914Z,6.25
2022-09-13T03:59:57.922Z,9.55
2022-09-13T04:02:26.333Z,12.27
2022-09-13T04:04:53.829Z,10.98
2022-09-13T04:07:22.371Z,26.42
2022-09-13T04:09:50.249Z,33.22
2022-09-13T04:12:18.350Z,7.32
2022-09-13T04:14:45.968Z,19.33
2022-09-13T04:17:13.883Z,20.55
2022-09-13T04:19:41.604Z,18.80
2022-09-13T04:22:09.123Z,18.48
2022-09-13T04:24:36.607Z,5.68
2022-09-13T04:27:04.960Z,5.90
2022-09-13T04:29:33.089Z,6.75
2022-09-13T04:32:00.591Z,13.45
2022-09-13T04:34:28.130Z,8.77
2022-09-13T04:36:55.620Z,15.10
2022-09-13T04:39:23.873Z,14.32
2022-09-13T04:41:52.426Z,5.93
2022-09-13T04:44:20.752Z,9.02
2022-09-13T04:46:49.072Z,6.18
2022-09-13T04:49:17.182Z,13.73
2022-09-13T04:51:44.991Z,15.30
2022-09-13T04:54:15.866Z,8.38
2022-09-13T04:56:43.664Z,14.52
2022-09-13T04:59:11.606Z,12.98
2022-09-13T05:01:39.674Z,10.02
2022-09-13T05:04:07.782Z,8.50
2022-09-13T05:06:35.490Z,6.15
2022-09-13T05:09:02.959Z,11.75
2022-09-13T05:11:30.847Z,9.15
2022-09-13T05:13:59.966Z,8.38
2022-09-13T05:16:28.478Z,7.70
2022-09-13T05:18:56.353Z,5.47
2022-09-13T05:21:24.268Z,6.72
2022-09-13T05:23:52.311Z,7.05
2022-09-13T05:26:19.902Z,6.75
2022-09-13T05:28:47.294Z,6.38
2022-09-13T05:31:16.809Z,15.65
2022-09-13T05:33:44.725Z,13.55
2022-09-13T05:36:12.401Z,8.60
2022-09-13T05:38:39.839Z,9.82
2022-09-13T05:41:07.271Z,19.52
2022-09-13T05:43:35.722Z,16.17
2022-09-13T05:46:04.489Z,7.60
2022-09-13T05:48:32.447Z,8.90
2022-09-13T05:51:07.350Z,9.23
2022-09-13T05:53:35.515Z,10.25
2022-09-13T05:56:02.994Z,10.07
2022-09-13T05:58:30.427Z,7.05
2022-09-13T06:00:58.172Z,7.28
2022-09-13T06:03:26.119Z,8.55
2022-09-13T06:05:57.748Z,6.70
2022-09-13T06:08:25.592Z,7.35
2022-09-13T06:11:00.295Z,6.32
2022-09-13T06:15:55.618Z,5.65
2022-09-13T06:18:24.694Z,6.50
2022-09-13T06:20:52.197Z,5.18
2022-09-13T06:23:21.871Z,5.63
2022-09-13T06:25:49.232Z,5.65
2022-09-13T06:28:16.670Z,5.55
2022-09-13T06:30:44.054Z,4.82
2022-09-13T06:33:11.481Z,5.43
2022-09-13T06:35:38.850Z,6.10
2022-09-13T06:38:06.439Z,8.13
2022-09-13T06:40:33.847Z,11.98
2022-09-13T06:43:01.519Z,5.75
2022-09-13T06:45:29.871Z,7.10
2022-09-13T06:47:57.410Z,5.95
2022-09-13T06:50:24.779Z,6.75
2022-09-13T06:52:52.266Z,8.63
2022-09-13T06:55:20.168Z,5.25
2022-09-13T06:57:47.627Z,7.68
2022-09-13T07:00:15.335Z,4.88
2022-09-13T07:02:42.780Z,5.45
2022-09-13T07:05:11.243Z,5.00
2022-09-13T07:07:38.717Z,5.45
2022-09-13T07:10:06.301Z,7.63
2022-09-13T07:12:33.799Z,4.43
2022-09-13T07:15:01.327Z,3.90
2022-09-13T07:17:31.462Z,5.50
2022-09-13T07:19:59.165Z,4.35
2022-09-13T07:22:27.988Z,4.05
2022-09-13T07:24:55.425Z,3.55
2022-09-13T07:27:22.834Z,5.68
2022-09-13T07:29:50.213Z,3.83
2022-09-13T07:32:17.694Z,3.88
2022-09-13T07:34:45.182Z,2.78
2022-09-13T07:37:12.625Z,3.47
2022-09-13T07:39:40.178Z,3.22
2022-09-13T07:42:07.836Z,4.80
2022-09-13T07:44:35.184Z,3.67
2022-09-13T07:47:02.799Z,3.42
2022-09-13T07:49:30.130Z,3.58
2022-09-13T07:51:57.755Z,3.55
2022-09-13T07:54:25.152Z,4.07
2022-09-13T07:56:52.603Z,2.53
2022-09-13T07:59:20.080Z,3.00
2022-09-13T08:01:48.791Z,3.30
2022-09-13T08:04:20.051Z,2.97
2022-09-13T08:06:47.946Z,2.97
2022-09-13T08:09:15.851Z,3.50
2022-09-13T08:11:44.626Z,2.75
2022-09-13T08:14:13.120Z,2.35
2022-09-13T08:16:41.016Z,2.60
2022-09-13T08:19:08.901Z,2.42
2022-09-13T08:21:37.826Z,2.55
2022-09-13T08:24:06.361Z,2.60
2022-09-13T08:26:35.401Z,2.30
2022-09-13T08:29:04.413Z,2.50
2022-09-13T08:31:32.198Z,2.30
2022-09-13T08:33:59.720Z,2.53
2022-09-13T08:36:28.072Z,2.53
2022-09-13T08:38:57.833Z,2.30
2022-09-13T08:41:25.393Z,3.20
2022-09-13T08:44:19.078Z,2.15
2022-09-13T08:46:47.143Z,2.28
2022-09-13T08:49:16.451Z,2.47
2022-09-13T08:51:48.864Z,2.08
2022-09-13T08:54:17.311Z,2.40
2022-09-13T08:56:50.897Z,3.50
2022-09-13T08:59:38.346Z,4.80
2022-09-13T09:02:12.222Z,4.75
2022-09-13T09:04:42.417Z,5.07
2022-09-13T09:07:16.108Z,5.93
2022-09-13T09:09:49.524Z,2.30
2022-09-13T09:12:30.076Z,2.67
2022-09-13T09:15:13.134Z,5.10
2022-09-13T09:17:47.247Z,6.60
2022-09-13T09:20:20.522Z,2.70
2022-09-13T09:22:48.881Z,2.95
2022-09-13T09:25:16.611Z,3.25
2022-09-13T09:27:44.179Z,3.33
2022-09-13T09:30:14.897Z,2.92
2022-09-13T09:32:45.663Z,5.05
2022-09-13T09:35:20.183Z,3.50
2022-09-13T09:40:17.268Z,2.53
2022-09-13T09:42:49.536Z,3.70
2022-09-13T09:45:26.678Z,10.60
2022-09-13T09:47:55.231Z,4.28
2022-09-13T09:50:31.158Z,3.25
2022-09-13T09:53:08.200Z,4.18
2022-09-13T09:55:38.360Z,3.55
2022-09-13T09:58:08.242Z,2.40
2022-09-13T10:00:37.460Z,2.10
2022-09-13T10:03:09.622Z,2.60
2022-09-13T10:05:37.483Z,3.03
2022-09-13T10:08:08.662Z,2.58
2022-09-13T10:10:42.845Z,2.70
2022-09-13T10:13:17.935Z,2.45
2022-09-13T10:15:54.658Z,3.55
2022-09-13T10:18:43.600Z,4.15
2022-09-13T10:21:18.030Z,2.95
2022-09-13T10:23:47.227Z,3.80
2022-09-13T10:26:19.905Z,13.27
2022-09-13T10:28:52.502Z,5.88
2022-09-13T10:31:21.638Z,5.32
2022-09-13T10:33:52.310Z,3.20
2022-09-13T10:36:48.284Z,19.65
2022-09-13T10:39:18.045Z,3.13
2022-09-13T10:41:50.942Z,5.68
2022-09-13T10:44:36.862Z,6.68
2022-09-13T10:47:07.299Z,3.03
2022-09-13T10:49:38.293Z,4.38
2022-09-13T10:52:23.849Z,3.47
2022-09-13T10:54:51.309Z,3.83
2022-09-13T10:57:35.968Z,2.33
2022-09-13T11:00:10.245Z,2.00
2022-09-13T11:02:56.403Z,2.50
2022-09-13T11:05:23.843Z,2.08
2022-09-13T11:07:51.255Z,3.72
2022-09-13T11:10:22.535Z,2.38
2022-09-13T11:12:59.048Z,2.17
2022-09-13T11:15:45.168Z,2.22
2022-09-13T11:18:18.405Z,2.03
2022-09-13T11:20:48.696Z,3.13
2022-09-13T11:23:16.153Z,4.50
2022-09-13T11:26:06.324Z,2.08
2022-09-13T11:28:54.963Z,3.13
2022-09-13T11:31:27.884Z,3.03
2022-09-13T11:34:04.367Z,2.38
2022-09-13T11:36:49.422Z,2.88
2022-09-13T11:39:24.621Z,3.00
2022-09-13T11:42:00.764Z,2.50
2022-09-13T11:44:45.084Z,2.50
2022-09-13T11:47:24.132Z,2.33
2022-09-13T11:50:10.491Z,2.38
2022-09-13T11:52:46.601Z,2.70
2022-09-13T11:55:19.430Z,2.50
2022-09-13T11:58:13.325Z,2.30
2022-09-13T12:00:46.268Z,2.20
2022-09-13T12:03:22.012Z,2.15
2022-09-13T12:05:52.418Z,2.60
2022-09-13T12:08:25.036Z,2.60
2022-09-13T12:11:00.304Z,2.28
2022-09-13T12:13:29.880Z,2.67
2022-09-13T12:16:00.103Z,2.53
2022-09-13T12:18:30.642Z,5.10
2022-09-13T12:21:19.424Z,3.17
2022-09-13T12:24:02.521Z,2.90
2022-09-13T12:26:30.268Z,3.40
2022-09-13T12:29:02.922Z,2.10
2022-09-13T12:31:31.867Z,2.47
2022-09-13T12:34:00.176Z,3.10
2022-09-13T12:36:47.834Z,3.40
2022-09-13T12:39:18.270Z,2.35
2022-09-13T12:41:59.186Z,4.00
2022-09-13T12:44:45.083Z,6.03
2022-09-13T12:47:13.226Z,7.30
2022-09-13T12:49:53.038Z,2.42
2022-09-13T12:52:35.587Z,2.80
2022-09-13T12:55:45.380Z,2.38
2022-09-13T12:58:18.128Z,2.20
2022-09-13T13:00:57.700Z,2.90
2022-09-13T13:03:29.432Z,3.72
2022-09-13T13:06:11.713Z,4.95
2022-09-13T13:08:39.583Z,4.90
2022-09-13T13:11:08.697Z,3.65
2022-09-13T13:13:36.154Z,5.22
2022-09-13T13:16:05.677Z,4.22
2022-09-13T13:18:49.176Z,3.58
2022-09-13T13:21:26.045Z,2.42
2022-09-13T13:24:12.333Z,2.05
2022-09-13T13:26:50.418Z,3.20
2022-09-13T13:29:17.922Z,1.90
2022-09-13T13:31:46.853Z,2.55
2022-09-13T13:34:17.098Z,2.28
2022-09-13T13:36:46.665Z,2.10
2022-09-13T13:39:14.148Z,2.10
2022-09-13T13:41:45.737Z,1.92
2022-09-13T13:44:17.776Z,3.40
2022-09-13T13:46:45.491Z,3.22
2022-09-13T13:49:33.089Z,1.90
2022-09-13T13:52:14.214Z,2.05
2022-09-13T13:54:44.838Z,1.90
2022-09-13T13:57:21.610Z,3.20
2022-09-13T13:59:51.476Z,1.95
2022-09-13T14:02:22.099Z,1.65
2022-09-13T14:05:08.462Z,1.38
2022-09-13T14:07:44.821Z,2.70
2022-09-13T14:10:16.095Z,2.70
2022-09-13T14:12:43.519Z,2.33
2022-09-13T14:15:23.046Z,2.10
2022-09-13T14:17:56.654Z,1.98
2022-09-13T14:20:25.502Z,2.33
2022-09-13T14:23:11.583Z,1.70
2022-09-13T14:25:39.376Z,4.03
2022-09-13T14:28:07.638Z,2.17
2022-09-13T14:30:39.364Z,2.30
2022-09-13T14:33:06.939Z,2.17
2022-09-13T14:35:36.971Z,5.47
2022-09-13T14:38:11.870Z,4.07
2022-09-13T14:40:39.563Z,3.22
2022-09-13T14:43:16.992Z,6.63
2022-09-13T14:45:45.471Z,3.38
2022-09-13T14:48:42.291Z,3.47
2022-09-13T14:51:30.006Z,9.75
2022-09-13T14:54:08.531Z,4.75
2022-09-13T14:56:41.619Z,4.50
2022-09-13T14:59:15.730Z,7.75
2022-09-13T15:01:43.207Z,2.17
2022-09-13T15:04:10.858Z,3.55
2022-09-13T15:06:39.402Z,2.60
2022-09-13T15:09:12.903Z,2.45
2022-09-13T15:11:44.849Z,2.33
2022-09-13T15:14:35.004Z,2.70
2022-09-13T15:17:12.419Z,2.55
2022-09-13T15:19:41.450Z,2.30
2022-09-13T15:22:14.494Z,3.35
2022-09-13T15:24:49.281Z,2.30
2022-09-13T15:27:42.499Z,1.90
2022-09-13T15:30:42.154Z,2.17
2022-09-13T15:33:09.811Z,2.67
2022-09-13T15:35:38.718Z,2.28
2022-09-13T15:38:15.254Z,2.55
2022-09-13T15:40:44.281Z,1.88
2022-09-13T15:43:11.698Z,2.40
2022-09-13T15:45:39.101Z,2.10
2022-09-13T15:48:07.110Z,1.83
2022-09-13T15:50:35.506Z,2.20
2022-09-13T15:53:02.960Z,2.00
2022-09-13T15:55:30.929Z,2.40
2022-09-13T15:57:58.336Z,2.45
2022-09-13T16:00:27.787Z,2.47
2022-09-13T16:02:55.305Z,2.10
2022-09-13T16:05:22.815Z,2.20
2022-09-13T16:07:50.247Z,2.28
2022-09-13T16:10:20.018Z,3.10
2022-09-13T16:12:47.612Z,3.10
2022-09-13T16:15:15.426Z,2.70
2022-09-13T16:17:43.043Z,2.80
2022-09-13T16:20:15.391Z,3.03
2022-09-13T16:22:42.954Z,2.83
2022-09-13T16:25:13.165Z,3.47
2022-09-13T16:27:41.199Z,3.13
2022-09-13T16:30:09.974Z,3.28
2022-09-13T16:32:37.382Z,3.08
2022-09-13T16:35:11.319Z,3.03
2022-09-13T16:37:39.996Z,3.83
2022-09-13T16:40:08.886Z,3.55
2022-09-13T16:42:36.499Z,3.53
2022-09-13T16:45:05.164Z,3.40
2022-09-13T16:47:32.634Z,3.40
2022-09-13T16:50:00.585Z,3.60
2022-09-13T16:52:29.287Z,3.63
2022-09-13T16:54:57.105Z,4.07
2022-09-13T16:57:24.699Z,2.72
2022-09-13T16:59:52.884Z,3.70
2022-09-13T17:02:20.969Z,3.00
2022-09-13T17:04:48.527Z,3.72
2022-09-13T17:07:16.035Z,4.45
2022-09-13T17:09:43.544Z,11.68
2022-09-13T17:12:12.365Z,3.05
2022-09-13T17:14:42.748Z,5.40
2022-09-13T17:17:10.217Z,3.70
2022-09-13T17:19:37.579Z,5.07
2022-09-13T17:22:08.162Z,5.55
2022-09-13T17:24:37.221Z,6.50
2022-09-13T17:27:06.762Z,3.38
2022-09-13T17:29:35.296Z,4.80
2022-09-13T17:32:03.470Z,6.50
2022-09-13T17:34:32.460Z,6.93
2022-09-13T17:36:59.908Z,6.10
2022-09-13T17:39:27.390Z,5.93
2022-09-13T17:41:55.028Z,6.47
2022-09-13T17:44:22.530Z,15.00
2022-09-13T17:46:50.055Z,7.70
2022-09-13T17:49:17.570Z,9.15
2022-09-13T17:51:44.970Z,4.97
2022-09-13T17:54:12.629Z,16.00
2022-09-13T17:56:42.063Z,7.78
2022-09-13T17:59:16.808Z,5.05
2022-09-13T18:04:12.509Z,3.80
2022-09-13T18:06:40.935Z,5.63
2022-09-13T18:09:08.596Z,8.15
2022-09-13T18:11:36.169Z,4.22
2022-09-13T18:14:03.863Z,4.93
2022-09-13T18:16:31.519Z,4.90
2022-09-13T18:18:59.871Z,5.50
2022-09-13T18:21:27.738Z,7.10
2022-09-13T18:24:01.727Z,3.35
2022-09-13T18:26:30.223Z,3.00
2022-09-13T18:29:01.659Z,2.38
2022-09-13T18:31:30.156Z,4.78
2022-09-13T18:33:58.963Z,2.40
2022-09-13T18:36:26.934Z,2.40
2022-09-13T18:38:56.120Z,2.30
2022-09-13T18:41:27.572Z,2.35
2022-09-13T18:43:56.382Z,2.45
2022-09-13T18:46:25.840Z,2.03
2022-09-13T18:48:54.448Z,2.92
2022-09-13T18:51:26.495Z,2.65
2022-09-13T18:53:54.656Z,2.97
2022-09-13T18:56:23.522Z,2.00
2022-09-13T18:58:52.524Z,2.80
2022-09-13T19:01:21.679Z,2.40
2022-09-13T19:03:50.140Z,2.55
2022-09-13T19:06:27.828Z,2.20
2022-09-13T19:08:56.663Z,2.13
2022-09-13T19:11:45.372Z,2.15
2022-09-13T19:14:23.478Z,2.80
2022-09-13T19:16:51.780Z,2.70
2022-09-13T19:19:19.397Z,4.00
2022-09-13T19:21:47.044Z,3.15
2022-09-13T19:24:19.411Z,7.32
2022-09-13T19:26:48.582Z,3.50
2022-09-13T19:29:17.470Z,3.30
2022-09-13T19:31:48.122Z,2.85
2022-09-13T19:34:16.144Z,9.48
2022-09-13T19:36:44.366Z,3.00
2022-09-13T19:39:12.499Z,3.00
2022-09-13T19:41:40.321Z,3.45
2022-09-13T19:44:08.785Z,3.53
2022-09-13T19:46:37.779Z,4.65
2022-09-13T19:49:06.276Z,4.38
2022-09-13T19:51:37.733Z,5.20
2022-09-13T19:54:05.958Z,4.57
2022-09-13T19:56:38.720Z,5.13
2022-09-13T19:59:07.577Z,5.72
2022-09-13T20:01:37.257Z,4.45
2022-09-13T20:04:06.186Z,17.23
2022-09-13T20:06:38.023Z,17.20
2022-09-13T20:09:05.553Z,4.72
2022-09-13T20:11:33.617Z,4.72
2022-09-13T20:14:01.295Z,4.20
2022-09-13T20:16:30.086Z,4.25
2022-09-13T20:18:57.912Z,4.10
2022-09-13T20:21:26.217Z,4.13
2022-09-13T20:23:59.058Z,4.47
2022-09-13T20:26:27.077Z,3.97
2022-09-13T20:28:55.727Z,5.97
2022-09-13T20:31:23.627Z,4.80
2022-09-13T20:34:01.241Z,9.63
2022-09-13T20:36:29.690Z,6.28
2022-09-13T20:39:02.415Z,4.03
2022-09-13T20:41:31.429Z,6.20
2022-09-13T20:44:02.674Z,11.45
2022-09-13T20:46:31.804Z,4.53
2022-09-13T20:48:59.434Z,3.03
2022-09-13T20:51:29.605Z,4.10
2022-09-13T20:54:00.812Z,4.43
2022-09-13T20:56:28.919Z,3.00
2022-09-13T20:58:58.166Z,4.15
2022-09-13T21:01:26.616Z,6.03
2022-09-13T21:03:54.849Z,5.45
2022-09-13T21:06:23.140Z,3.20
2022-09-13T21:08:50.653Z,3.40
2022-09-13T21:11:25.802Z,3.42
2022-09-13T21:13:55.363Z,3.60
2022-09-13T21:16:24.073Z,3.03
2022-09-13T21:18:51.909Z,4.18
2022-09-13T21:21:21.000Z,3.88
2022-09-13T21:23:48.699Z,9.68
2022-09-13T21:26:17.555Z,4.30
2022-09-13T21:28:45.217Z,7.10
2022-09-13T21:31:21.493Z,6.15
2022-09-13T21:33:49.724Z,11.73
2022-09-13T21:36:17.098Z,3.88
2022-09-13T21:38:44.559Z,6.65
2022-09-13T21:41:16.101Z,8.40
2022-09-13T21:43:43.725Z,8.07
2022-09-13T21:46:18.791Z,8.13
2022-09-13T21:48:50.359Z,3.75
2022-09-13T21:51:19.193Z,4.63
2022-09-13T21:53:47.273Z,3.45
2022-09-13T21:56:16.572Z,8.60
2022-09-13T21:58:49.024Z,3.45
2022-09-13T22:01:17.704Z,3.40
2022-09-13T22:03:45.867Z,8.70
2022-09-13T22:06:14.994Z,8.57
2022-09-13T22:08:43.718Z,3.63
2022-09-13T22:11:15.511Z,5.00
2022-09-13T22:13:47.554Z,7.50
2022-09-13T22:16:18.827Z,3.85
2022-09-13T22:18:47.368Z,3.42
2022-09-13T22:21:16.643Z,6.68
2022-09-13T22:23:44.307Z,3.72
2022-09-13T22:26:13.822Z,3.58
2022-09-13T22:28:41.284Z,3.65
2022-09-13T22:31:13.097Z,5.03
2022-09-13T22:33:40.680Z,4.72
2022-09-13T22:36:09.492Z,3.65
2022-09-13T22:38:37.723Z,3.45
2022-09-13T22:41:07.166Z,3.42
2022-09-13T22:43:35.031Z,5.53
2022-09-13T22:46:12.836Z,3.67
2022-09-13T22:48:40.862Z,4.15
2022-09-13T22:51:09.413Z,3.72
2022-09-13T22:53:37.637Z,6.13
2022-09-13T22:56:06.119Z,4.30
2022-09-13T22:58:33.588Z,2.72
2022-09-13T23:01:08.479Z,4.20
2022-09-13T23:06:03.675Z,3.63
2022-09-13T23:08:31.249Z,4.15
2022-09-13T23:11:08.531Z,3.70
2022-09-13T23:13:36.072Z,3.47
2022-09-13T23:16:04.399Z,3.70
2022-09-13T23:18:32.557Z,3.10
2022-09-13T23:20:59.990Z,3.35
2022-09-13T23:23:27.534Z,4.97
2022-09-13T23:25:54.934Z,6.78
2022-09-13T23:28:22.458Z,10.85
2022-09-13T23:30:49.849Z,32.47
2022-09-13T23:33:17.685Z,35.75
2022-09-13T23:35:45.856Z,15.98
2022-09-13T23:38:13.311Z,9.02
2022-09-13T23:40:41.154Z,29.17
2022-09-13T23:43:08.745Z,4.00
2022-09-13T23:45:36.301Z,5.18
2022-09-13T23:48:03.775Z,3.13
2022-09-13T23:50:31.158Z,3.55
2022-09-13T23:52:58.704Z,3.40
2022-09-13T23:55:26.283Z,2.90
2022-09-13T23:57:53.697Z,3.70
